Time,TemperatureF,DewpointF,PressureIn,WindDirection,WindDirectionDegrees,WindSpeedMPH,WindSpeedGustMPH,Humidity,HourlyPrecipIn,Conditions,Clouds,dailyrainin,SolarRadiationWatts/m^2,SoftwareType,DateUTC
2013-01-02 00:07:00,60.7,60.0,30.06,SSE,161,0.0,0.0,96,0.00,,,0.00,0,weatherlink.com 1.10,2013-01-02 05:07:00,
2013-01-02 00:22:00,60.5,59.0,30.06,SSE,161,0.0,0.0,96,0.00,,,0.00,0,weatherlink.com 1.10,2013-01-02 05:22:00,
2013-01-02 00:37:00,60.2,59.0,30.05,SSE,161,0.0,0.0,96,0.00,,,0.00,0,weatherlink.com 1.10,2013-01-02 05:37:00,
2013-01-02 00:52:00,60.0,59.0,30.05,SSE,161,0.0,0.0,96,0.00,,,0.00,0,weatherlink.com 1.10,2013-01-02 05:52:00,
2013-01-02 01:07:00,59.8,59.0,30.05,SSE,161,0.0,0.0,96,0.00,,,0.00,0,weatherlink.com 1.10,2013-01-02 06:07:00,
2013-01-02 01:22:00,59.5,59.0,30.05,SSE,161,0.0,0.0,97,0.00,,,0.00,0,weatherlink.com 1.10,2013-01-02 06:22:00,
2013-01-02 01:37:00,59.3,59.0,30.05,SSE,161,0.0,0.0,97,0.00,,,0.00,0,weatherlink.com 1.10,2013-01-02 06:37:00,
2013-01-02 01:52:00,59.1,58.0,30.05,SSE,161,0.0,0.0,97,0.00,,,0.00,0,weatherlink.com 1.10,2013-01-02 06:52:00,
2013-01-02 02:07:00,58.9,58.0,30.05,SSE,161,0.0,0.0,97,0.00,,,0.00,0,weatherlink.com 1.10,2013-01-02 07:07:00,
2013-01-02 02:22:00,58.8,58.0,30.05,SSE,161,0.0,0.0,97,0.00,,,0.00,0,weatherlink.com 1.10,2013-01-02 07:22:00,
2013-01-02 02:37:00,58.7,58.0,30.05,SSE,161,0.0,0.0,97,0.00,,,0.00,0,weatherlink.com 1.10,2013-01-02 07:37:00,
2013-01-02 02:52:00,58.9,58.0,30.05,SSE,161,0.0,0.0,98,0.00,,,0.00,0,weatherlink.com 1.10,2013-01-02 07:52:00,
2013-01-02 03:07:00,59.1,59.0,30.05,SSE,161,0.0,0.0,98,0.00,,,0.00,0,weatherlink.com 1.10,2013-01-02 08:07:00,
2013-01-02 03:22:00,59.4,59.0,30.05,SSE,161,0.0,0.0,98,0.00,,,0.00,0,weatherlink.com 1.10,2013-01-02 08:22:00,
2013-01-02 03:37:00,59.5,59.0,30.05,SSE,161,0.0,0.0,98,0.00,,,0.00,0,weatherlink.com 1.10,2013-01-02 08:37:00,
2013-01-02 03:52:00,59.7,59.0,30.05,SSE,161,0.0,0.0,98,0.00,,,0.00,0,weatherlink.com 1.10,2013-01-02 08:52:00,
2013-01-02 04:07:00,59.6,59.0,30.05,SSE,161,0.0,0.0,98,0.00,,,0.00,0,weatherlink.com 1.10,2013-01-02 09:07:00,
2013-01-02 04:22:00,59.5,59.0,30.05,SSE,161,0.0,0.0,98,0.00,,,0.00,0,weatherlink.com 1.10,2013-01-02 09:22:00,
2013-01-02 04:37:00,59.4,59.0,30.05,SSE,161,0.0,0.0,98,0.00,,,0.00,0,weatherlink.com 1.10,2013-01-02 09:37:00,
2013-01-02 04:52:00,59.2,59.0,30.05,SSE,161,0.0,0.0,98,0.00,,,0.00,0,weatherlink.com 1.10,2013-01-02 09:52:00,
2013-01-02 05:07:00,58.9,58.0,30.05,SSE,161,0.0,0.0,97,0.00,,,0.00,0,weatherlink.com 1.10,2013-01-02 10:07:00,
2013-01-02 05:22:00,58.6,58.0,30.05,SSE,161,0.0,0.0,98,0.00,,,0.00,0,weatherlink.com 1.10,2013-01-02 10:22:00,
2013-01-02 05:37:00,58.3,58.0,30.06,SSE,161,0.0,0.0,98,0.00,,,0.00,0,weatherlink.com 1.10,2013-01-02 10:37:00,
2013-01-02 05:52:00,58.2,58.0,30.06,SSE,161,0.0,0.0,98,0.00,,,0.00,0,weatherlink.com 1.10,2013-01-02 10:52:00,
2013-01-02 06:07:00,57.9,57.0,30.06,SSE,161,0.0,0.0,98,0.00,,,0.00,0,weatherlink.com 1.10,2013-01-02 11:07:00,
2013-01-02 06:22:00,57.9,57.0,30.07,SSE,161,0.0,0.0,98,0.00,,,0.00,0,weatherlink.com 1.10,2013-01-02 11:22:00,
2013-01-02 06:38:00,57.8,57.0,30.07,SSE,161,0.0,0.0,98,0.00,,,0.00,0,weatherlink.com 1.10,2013-01-02 11:38:00,
2013-01-02 06:53:00,57.8,57.0,30.08,SSE,161,0.0,0.0,98,0.00,,,0.00,0,weatherlink.com 1.10,2013-01-02 11:53:00,
2013-01-02 07:08:00,58.1,58.0,30.08,SSE,161,0.0,0.0,99,0.00,,,0.00,0,weatherlink.com 1.10,2013-01-02 12:08:00,
2013-01-02 07:23:00,58.7,59.0,30.08,SSE,161,0.0,0.0,99,0.00,,,0.00,11,weatherlink.com 1.10,2013-01-02 12:23:00,
2013-01-02 07:38:00,59.0,59.0,30.08,SSE,161,0.0,0.0,99,0.00,,,0.00,21,weatherlink.com 1.10,2013-01-02 12:38:00,
2013-01-02 07:53:00,59.4,59.0,30.08,SSE,161,0.0,0.0,99,0.00,,,0.00,32,weatherlink.com 1.10,2013-01-02 12:53:00,
2013-01-02 08:08:00,60.1,60.0,30.09,SSE,161,0.0,0.0,99,0.00,,,0.00,37,weatherlink.com 1.10,2013-01-02 13:08:00,
2013-01-02 08:23:00,61.6,61.0,30.09,SSE,161,0.0,0.0,99,0.00,,,0.00,174,weatherlink.com 1.10,2013-01-02 13:23:00,
2013-01-02 08:38:00,63.6,63.0,30.09,SSE,161,0.0,0.0,99,0.00,,,0.00,227,weatherlink.com 1.10,2013-01-02 13:38:00,
2013-01-02 08:53:00,65.7,65.0,30.09,SSE,161,0.0,0.0,98,0.00,,,0.00,276,weatherlink.com 1.10,2013-01-02 13:53:00,
2013-01-02 09:08:00,67.7,66.0,30.09,SSE,161,0.0,0.0,94,0.00,,,0.00,320,weatherlink.com 1.10,2013-01-02 14:08:00,
2013-01-02 09:23:00,69.6,66.0,30.09,SSE,161,0.0,2.0,89,0.00,,,0.00,371,weatherlink.com 1.10,2013-01-02 14:23:00,
2013-01-02 09:38:00,71.1,67.0,30.10,SW,217,1.0,3.0,86,0.00,,,0.00,411,weatherlink.com 1.10,2013-01-02 14:38:00,
2013-01-02 09:53:00,72.2,68.0,30.10,South,186,0.0,2.0,85,0.00,,,0.00,454,weatherlink.com 1.10,2013-01-02 14:53:00,
2013-01-02 10:08:00,73.4,68.0,30.10,WSW,238,2.0,4.0,82,0.00,,,0.00,492,weatherlink.com 1.10,2013-01-02 15:08:00,
2013-01-02 10:23:00,74.0,68.0,30.10,SSW,207,0.0,5.0,82,0.00,,,0.00,524,weatherlink.com 1.10,2013-01-02 15:23:00,
2013-01-02 10:38:00,75.3,68.0,30.09,SSW,213,2.0,7.0,77,0.00,,,0.00,571,weatherlink.com 1.10,2013-01-02 15:38:00,
2013-01-02 10:53:00,77.2,68.0,30.09,WSW,240,2.0,6.0,74,0.00,,,0.00,657,weatherlink.com 1.10,2013-01-02 15:53:00,
2013-01-02 11:08:00,77.1,67.0,30.09,SW,219,0.0,4.0,72,0.00,,,0.00,680,weatherlink.com 1.10,2013-01-02 16:08:00,
2013-01-02 11:23:00,77.9,67.0,30.09,SSW,209,2.0,4.0,70,0.00,,,0.00,638,weatherlink.com 1.10,2013-01-02 16:23:00,
2013-01-02 11:39:00,78.2,68.0,30.08,SSW,196,1.0,5.0,70,0.00,,,0.00,504,weatherlink.com 1.10,2013-01-02 16:39:00,
2013-01-02 11:54:00,78.1,67.0,30.07,SE,138,0.0,5.0,68,0.00,,,0.00,638,weatherlink.com 1.10,2013-01-02 16:54:00,
2013-01-02 12:09:00,78.2,66.0,30.06,SW,220,2.0,6.0,66,0.00,,,0.00,555,weatherlink.com 1.10,2013-01-02 17:09:00,
2013-01-02 12:24:00,78.3,66.0,30.05,WNW,299,1.0,5.0,66,0.00,,,0.00,638,weatherlink.com 1.10,2013-01-02 17:24:00,
2013-01-02 12:39:00,77.5,66.0,30.05,WSW,248,0.0,3.0,67,0.00,,,0.00,724,weatherlink.com 1.10,2013-01-02 17:39:00,
2013-01-02 12:54:00,78.6,66.0,30.04,WSW,252,1.0,4.0,65,0.00,,,0.00,710,weatherlink.com 1.10,2013-01-02 17:54:00,
2013-01-02 13:09:00,79.9,66.0,30.03,South,185,1.0,5.0,63,0.00,,,0.00,791,weatherlink.com 1.10,2013-01-02 18:09:00,
2013-01-02 13:24:00,80.5,65.0,30.02,WSW,244,1.0,5.0,60,0.00,,,0.00,626,weatherlink.com 1.10,2013-01-02 18:24:00,
2013-01-02 13:39:00,79.3,65.0,30.02,SW,231,0.0,4.0,61,0.00,,,0.00,606,weatherlink.com 1.10,2013-01-02 18:39:00,
2013-01-02 13:54:00,80.2,66.0,30.01,SSW,192,3.0,6.0,62,0.00,,,0.00,434,weatherlink.com 1.10,2013-01-02 18:54:00,
2013-01-02 14:09:00,78.6,65.0,30.01,SW,232,0.0,3.0,63,0.00,,,0.00,93,weatherlink.com 1.10,2013-01-02 19:09:00,
2013-01-02 14:24:00,78.1,65.0,30.01,WSW,242,0.0,3.0,65,0.00,,,0.00,116,weatherlink.com 1.10,2013-01-02 19:24:00,
2013-01-02 14:39:00,78.8,64.0,30.00,West,273,2.0,3.0,60,0.00,,,0.00,65,weatherlink.com 1.10,2013-01-02 19:39:00,
2013-01-02 14:54:00,78.6,64.0,30.00,WSW,244,0.0,3.0,62,0.00,,,0.00,93,weatherlink.com 1.10,2013-01-02 19:54:00,
2013-01-02 15:09:00,78.7,64.0,30.00,WSW,257,0.0,3.0,61,0.00,,,0.00,79,weatherlink.com 1.10,2013-01-02 20:09:00,
2013-01-02 15:24:00,79.4,65.0,30.00,WSW,257,0.0,2.0,62,0.00,,,0.00,336,weatherlink.com 1.10,2013-01-02 20:24:00,
2013-01-02 15:39:00,80.3,65.0,30.00,SSE,165,2.0,6.0,59,0.00,,,0.00,193,weatherlink.com 1.10,2013-01-02 20:39:00,
2013-01-02 15:54:00,80.1,65.0,30.00,SSW,210,0.0,2.0,60,0.00,,,0.00,234,weatherlink.com 1.10,2013-01-02 20:54:00,
2013-01-02 16:09:00,79.8,65.0,30.00,SSW,210,0.0,2.0,61,0.00,,,0.00,146,weatherlink.com 1.10,2013-01-02 21:09:00,
2013-01-02 16:24:00,80.4,66.0,30.00,WSW,242,0.0,1.0,61,0.00,,,0.00,111,weatherlink.com 1.10,2013-01-02 21:24:00,
2013-01-02 16:39:00,79.9,65.0,30.00,WSW,242,0.0,2.0,60,0.00,,,0.00,81,weatherlink.com 1.10,2013-01-02 21:39:00,
2013-01-02 16:54:00,77.8,70.0,30.01,WSW,242,0.0,0.0,77,0.00,,,0.00,32,weatherlink.com 1.10,2013-01-02 21:54:00,
2013-01-02 17:09:00,72.7,69.0,30.01,WSW,240,0.0,1.0,87,0.00,,,0.00,19,weatherlink.com 1.10,2013-01-02 22:09:00,
2013-01-02 17:24:00,70.3,68.0,30.01,SW,221,0.0,1.0,91,0.01,,,0.01,14,weatherlink.com 1.10,2013-01-02 22:24:00,
2013-01-02 17:39:00,68.9,67.0,30.02,SW,221,0.0,0.0,92,0.01,,,0.01,0,weatherlink.com 1.10,2013-01-02 22:39:00,
2013-01-02 17:54:00,67.9,66.0,30.02,SW,221,0.0,0.0,93,0.01,,,0.01,0,weatherlink.com 1.10,2013-01-02 22:54:00,
2013-01-02 18:09:00,67.1,65.0,30.02,SW,221,0.0,0.0,94,0.01,,,0.01,0,weatherlink.com 1.10,2013-01-02 23:09:00,
2013-01-02 18:24:00,66.6,65.0,30.03,SW,221,0.0,0.0,95,0.00,,,0.01,0,weatherlink.com 1.10,2013-01-02 23:24:00,
2013-01-02 18:39:00,66.2,65.0,30.03,SW,221,0.0,0.0,95,0.00,,,0.01,0,weatherlink.com 1.10,2013-01-02 23:39:00,
2013-01-02 18:54:00,66.0,65.0,30.03,SW,221,0.0,0.0,95,0.00,,,0.01,0,weatherlink.com 1.10,2013-01-02 23:54:00,
2013-01-02 19:09:00,65.8,65.0,30.04,SW,221,0.0,0.0,96,0.00,,,0.01,0,weatherlink.com 1.10,2013-01-03 00:09:00,
2013-01-02 19:24:00,65.7,65.0,30.04,SW,221,0.0,0.0,97,0.00,,,0.01,0,weatherlink.com 1.10,2013-01-03 00:24:00,
2013-01-02 19:39:00,65.8,65.0,30.05,SW,221,0.0,0.0,97,0.00,,,0.01,0,weatherlink.com 1.10,2013-01-03 00:39:00,
2013-01-02 19:54:00,65.7,65.0,30.05,SW,221,0.0,0.0,97,0.00,,,0.01,0,weatherlink.com 1.10,2013-01-03 00:54:00,
2013-01-02 20:09:00,65.7,65.0,30.05,SW,221,0.0,0.0,97,0.00,,,0.01,0,weatherlink.com 1.10,2013-01-03 01:09:00,
2013-01-02 20:24:00,65.7,65.0,30.05,SW,221,0.0,0.0,97,0.00,,,0.01,0,weatherlink.com 1.10,2013-01-03 01:24:00,
2013-01-02 20:39:00,65.8,65.0,30.06,SW,221,0.0,0.0,97,0.00,,,0.01,0,weatherlink.com 1.10,2013-01-03 01:39:00,
2013-01-02 20:54:00,65.9,65.0,30.06,SW,221,0.0,0.0,98,0.00,,,0.01,0,weatherlink.com 1.10,2013-01-03 01:54:00,
2013-01-02 21:09:00,66.0,66.0,30.06,SW,221,0.0,0.0,98,0.00,,,0.01,0,weatherlink.com 1.10,2013-01-03 02:09:00,
2013-01-02 21:24:00,66.1,66.0,30.06,SW,221,0.0,0.0,98,0.00,,,0.01,0,weatherlink.com 1.10,2013-01-03 02:24:00,
2013-01-02 21:39:00,66.3,66.0,30.07,SW,221,0.0,0.0,98,0.00,,,0.01,0,weatherlink.com 1.10,2013-01-03 02:39:00,
2013-01-02 21:54:00,66.7,66.0,30.07,SW,221,0.0,0.0,98,0.00,,,0.01,0,weatherlink.com 1.10,2013-01-03 02:54:00,
2013-01-02 22:09:00,67.0,67.0,30.07,SW,221,0.0,0.0,98,0.00,,,0.01,0,weatherlink.com 1.10,2013-01-03 03:09:00,
2013-01-02 22:24:00,66.7,66.0,30.07,SW,221,0.0,0.0,98,0.00,,,0.01,0,weatherlink.com 1.10,2013-01-03 03:24:00,
2013-01-02 22:54:00,66.6,66.0,30.07,SW,221,0.0,0.0,98,0.00,,,0.01,0,weatherlink.com 1.10,2013-01-03 03:54:00,
2013-01-02 23:09:00,66.8,66.0,30.07,SW,221,0.0,0.0,98,0.00,,,0.01,0,weatherlink.com 1.10,2013-01-03 04:09:00,
2013-01-02 23:24:00,66.7,66.0,30.07,SW,221,0.0,0.0,98,0.00,,,0.01,0,weatherlink.com 1.10,2013-01-03 04:24:00,
2013-01-02 23:39:00,67.0,67.0,30.07,SW,221,0.0,0.0,98,0.00,,,0.01,0,weatherlink.com 1.10,2013-01-03 04:39:00,
2013-01-02 23:54:00,66.8,66.0,30.06,SW,221,0.0,0.0,98,0.00,,,0.01,0,weatherlink.com 1.10,2013-01-03 04:54:00,